sensor_id;sensor_type;location;lat;lon;timestamp;pressure;altitude;pressure_sealevel;temperature
22828;BMP180;11580;52.562;13.418;2023-10-09T00:02:45;101345.00;;;16.30
22828;BMP180;11580;52.562;13.418;2023-10-09T00:05:14;101335.00;;;16.30
22828;BMP180;11580;52.562;13.418;2023-10-09T00:07:49;101342.00;;;16.20
22828;BMP180;11580;52.562;13.418;2023-10-09T00:10:19;101336.00;;;16.20
22828;BMP180;11580;52.562;13.418;2023-10-09T00:12:47;101345.00;;;16.20
22828;BMP180;11580;52.562;13.418;2023-10-09T00:15:15;101336.00;;;16.30
22828;BMP180;11580;52.562;13.418;2023-10-09T00:17:45;101331.00;;;16.30
22828;BMP180;11580;52.562;13.418;2023-10-09T00:20:12;101331.00;;;16.20
22828;BMP180;11580;52.562;13.418;2023-10-09T00:22:56;101330.00;;;16.20
22828;BMP180;11580;52.562;13.418;2023-10-09T00:25:23;101311.00;;;16.20
22828;BMP180;11580;52.562;13.418;2023-10-09T00:27:56;101311.00;;;16.20
22828;BMP180;11580;52.562;13.418;2023-10-09T00:30:25;101303.00;;;16.20
22828;BMP180;11580;52.562;13.418;2023-10-09T00:32:57;101311.00;;;16.10
22828;BMP180;11580;52.562;13.418;2023-10-09T00:35:27;101321.00;;;16.10
22828;BMP180;11580;52.562;13.418;2023-10-09T00:38:07;101310.00;;;16.10
22828;BMP180;11580;52.562;13.418;2023-10-09T00:40:42;101292.00;;;16.00
22828;BMP180;11580;52.562;13.418;2023-10-09T00:43:13;101288.00;;;16.00
22828;BMP180;11580;52.562;13.418;2023-10-09T00:45:42;101275.00;;;16.00
22828;BMP180;11580;52.562;13.418;2023-10-09T00:48:12;101279.00;;;16.00
22828;BMP180;11580;52.562;13.418;2023-10-09T00:50:48;101289.00;;;15.90
22828;BMP180;11580;52.562;13.418;2023-10-09T00:53:20;101278.00;;;15.90
22828;BMP180;11580;52.562;13.418;2023-10-09T00:55:58;101270.00;;;15.90
22828;BMP180;11580;52.562;13.418;2023-10-09T00:58:31;101270.00;;;15.90
22828;BMP180;11580;52.562;13.418;2023-10-09T01:01:01;101269.00;;;15.90
22828;BMP180;11580;52.562;13.418;2023-10-09T01:03:33;101256.00;;;15.90
22828;BMP180;11580;52.562;13.418;2023-10-09T01:06:02;101263.00;;;15.90
22828;BMP180;11580;52.562;13.418;2023-10-09T01:08:42;101261.00;;;15.90
22828;BMP180;11580;52.562;13.418;2023-10-09T01:11:21;101247.00;;;15.80
22828;BMP180;11580;52.562;13.418;2023-10-09T01:13:56;101243.00;;;15.80
22828;BMP180;11580;52.562;13.418;2023-10-09T01:16:38;101240.00;;;15.80
22828;BMP180;11580;52.562;13.418;2023-10-09T01:19:09;101234.00;;;15.80
22828;BMP180;11580;52.562;13.418;2023-10-09T01:21:47;101232.00;;;15.80
22828;BMP180;11580;52.562;13.418;2023-10-09T01:24:17;101218.00;;;15.80
22828;BMP180;11580;52.562;13.418;2023-10-09T01:26:47;101204.00;;;15.80
22828;BMP180;11580;52.562;13.418;2023-10-09T01:29:18;101202.00;;;15.80
22828;BMP180;11580;52.562;13.418;2023-10-09T01:31:47;101189.00;;;15.70
22828;BMP180;11580;52.562;13.418;2023-10-09T01:34:21;101179.00;;;15.70
22828;BMP180;11580;52.562;13.418;2023-10-09T01:37:00;101166.00;;;15.70
22828;BMP180;11580;52.562;13.418;2023-10-09T01:39:32;101154.00;;;15.70
22828;BMP180;11580;52.562;13.418;2023-10-09T01:42:05;101138.00;;;15.60
22828;BMP180;11580;52.562;13.418;2023-10-09T01:44:33;101131.00;;;15.60
22828;BMP180;11580;52.562;13.418;2023-10-09T01:47:01;101126.00;;;15.60
22828;BMP180;11580;52.562;13.418;2023-10-09T01:49:33;101113.00;;;15.60
22828;BMP180;11580;52.562;13.418;2023-10-09T01:52:03;101102.00;;;15.60
22828;BMP180;11580;52.562;13.418;2023-10-09T01:54:37;101099.00;;;15.50
22828;BMP180;11580;52.562;13.418;2023-10-09T01:57:05;101102.00;;;15.50
22828;BMP180;11580;52.562;13.418;2023-10-09T01:59:35;101094.00;;;15.50
22828;BMP180;11580;52.562;13.418;2023-10-09T02:02:11;101086.00;;;15.50
22828;BMP180;11580;52.562;13.418;2023-10-09T02:04:59;101089.00;;;15.50
22828;BMP180;11580;52.562;13.418;2023-10-09T02:07:35;101067.00;;;15.50
22828;BMP180;11580;52.562;13.418;2023-10-09T02:10:13;101078.00;;;15.50
22828;BMP180;11580;52.562;13.418;2023-10-09T02:12:52;101089.00;;;15.50
22828;BMP180;11580;52.562;13.418;2023-10-09T02:15:23;101093.00;;;15.50
22828;BMP180;11580;52.562;13.418;2023-10-09T02:18:04;101095.00;;;15.50
22828;BMP180;11580;52.562;13.418;2023-10-09T02:20:43;101100.00;;;15.50
22828;BMP180;11580;52.562;13.418;2023-10-09T02:23:12;101094.00;;;15.50
22828;BMP180;11580;52.562;13.418;2023-10-09T02:25:42;101070.00;;;15.50
22828;BMP180;11580;52.562;13.418;2023-10-09T02:28:10;101079.00;;;15.50
22828;BMP180;11580;52.562;13.418;2023-10-09T02:30:44;101072.00;;;15.50
22828;BMP180;11580;52.562;13.418;2023-10-09T02:33:14;101089.00;;;15.50
22828;BMP180;11580;52.562;13.418;2023-10-09T02:35:47;101088.00;;;15.50
22828;BMP180;11580;52.562;13.418;2023-10-09T02:38:17;101095.00;;;15.50
22828;BMP180;11580;52.562;13.418;2023-10-09T02:40:50;101095.00;;;15.50
22828;BMP180;11580;52.562;13.418;2023-10-09T02:43:44;101100.00;;;15.60
22828;BMP180;11580;52.562;13.418;2023-10-09T02:46:14;101093.00;;;15.60
22828;BMP180;11580;52.562;13.418;2023-10-09T02:48:44;101071.00;;;15.60
22828;BMP180;11580;52.562;13.418;2023-10-09T02:51:17;101051.00;;;15.60
22828;BMP180;11580;52.562;13.418;2023-10-09T02:54:01;101048.00;;;15.60
22828;BMP180;11580;52.562;13.418;2023-10-09T02:56:45;101049.00;;;15.50
22828;BMP180;11580;52.562;13.418;2023-10-09T02:59:21;101049.00;;;15.50
22828;BMP180;11580;52.562;13.418;2023-10-09T03:01:49;101042.00;;;15.50
22828;BMP180;11580;52.562;13.418;2023-10-09T03:04:18;101043.00;;;15.50
22828;BMP180;11580;52.562;13.418;2023-10-09T03:06:46;101038.00;;;15.50
22828;BMP180;11580;52.562;13.418;2023-10-09T03:09:17;101038.00;;;15.50
22828;BMP180;11580;52.562;13.418;2023-10-09T03:11:48;101035.00;;;15.50
22828;BMP180;11580;52.562;13.418;2023-10-09T03:14:19;101029.00;;;15.50
22828;BMP180;11580;52.562;13.418;2023-10-09T03:16:46;101009.00;;;15.50
22828;BMP180;11580;52.562;13.418;2023-10-09T03:19:14;101006.00;;;15.50
22828;BMP180;11580;52.562;13.418;2023-10-09T03:21:41;100993.00;;;15.50
22828;BMP180;11580;52.562;13.418;2023-10-09T03:24:10;100985.00;;;15.50
22828;BMP180;11580;52.562;13.418;2023-10-09T03:26:38;100997.00;;;15.50
22828;BMP180;11580;52.562;13.418;2023-10-09T03:29:06;100991.00;;;15.50
22828;BMP180;11580;52.562;13.418;2023-10-09T03:31:36;100978.00;;;15.50
22828;BMP180;11580;52.562;13.418;2023-10-09T03:34:04;100971.00;;;15.50
22828;BMP180;11580;52.562;13.418;2023-10-09T03:36:34;100966.00;;;15.50
22828;BMP180;11580;52.562;13.418;2023-10-09T03:39:04;100956.00;;;15.50
22828;BMP180;11580;52.562;13.418;2023-10-09T03:41:44;100945.00;;;15.50
22828;BMP180;11580;52.562;13.418;2023-10-09T03:44:14;100935.00;;;15.50
22828;BMP180;11580;52.562;13.418;2023-10-09T03:46:44;100930.00;;;15.50
22828;BMP180;11580;52.562;13.418;2023-10-09T03:49:12;100922.00;;;15.50
22828;BMP180;11580;52.562;13.418;2023-10-09T03:51:41;100909.00;;;15.50
22828;BMP180;11580;52.562;13.418;2023-10-09T03:54:11;100917.00;;;15.50
22828;BMP180;11580;52.562;13.418;2023-10-09T03:56:39;100912.00;;;15.50
22828;BMP180;11580;52.562;13.418;2023-10-09T03:59:06;100922.00;;;15.50
22828;BMP180;11580;52.562;13.418;2023-10-09T04:01:37;100923.00;;;15.50
22828;BMP180;11580;52.562;13.418;2023-10-09T04:04:06;100908.00;;;15.50
22828;BMP180;11580;52.562;13.418;2023-10-09T04:06:36;100951.00;;;15.40
22828;BMP180;11580;52.562;13.418;2023-10-09T04:09:07;100956.00;;;15.40
22828;BMP180;11580;52.562;13.418;2023-10-09T04:11:54;100977.00;;;15.30
22828;BMP180;11580;52.562;13.418;2023-10-09T04:14:45;100963.00;;;15.30
22828;BMP180;11580;52.562;13.418;2023-10-09T04:17:22;100956.00;;;15.20
22828;BMP180;11580;52.562;13.418;2023-10-09T04:20:07;100962.00;;;15.10
22828;BMP180;11580;52.562;13.418;2023-10-09T04:23:06;100957.00;;;15.00
22828;BMP180;11580;52.562;13.418;2023-10-09T04:25:33;100927.00;;;15.00
22828;BMP180;11580;52.562;13.418;2023-10-09T04:28:10;100920.00;;;15.00
22828;BMP180;11580;52.562;13.418;2023-10-09T04:30:45;100912.00;;;14.90
22828;BMP180;11580;52.562;13.418;2023-10-09T04:33:20;100900.00;;;14.90
22828;BMP180;11580;52.562;13.418;2023-10-09T04:36:02;100920.00;;;14.90
22828;BMP180;11580;52.562;13.418;2023-10-09T04:38:42;100918.00;;;14.90
22828;BMP180;11580;52.562;13.418;2023-10-09T04:41:22;100912.00;;;14.90
22828;BMP180;11580;52.562;13.418;2023-10-09T04:43:58;100927.00;;;14.90
22828;BMP180;11580;52.562;13.418;2023-10-09T04:46:44;100924.00;;;14.90
22828;BMP180;11580;52.562;13.418;2023-10-09T04:49:34;100927.00;;;14.90
22828;BMP180;11580;52.562;13.418;2023-10-09T04:52:15;100929.00;;;14.90
22828;BMP180;11580;52.562;13.418;2023-10-09T04:55:07;100916.00;;;14.90
22828;BMP180;11580;52.562;13.418;2023-10-09T04:57:45;100914.00;;;14.90
22828;BMP180;11580;52.562;13.418;2023-10-09T05:00:26;100907.00;;;14.90
22828;BMP180;11580;52.562;13.418;2023-10-09T05:03:13;100902.00;;;14.90
22828;BMP180;11580;52.562;13.418;2023-10-09T05:05:52;100876.00;;;14.90
22828;BMP180;11580;52.562;13.418;2023-10-09T05:08:26;100892.00;;;14.90
22828;BMP180;11580;52.562;13.418;2023-10-09T05:10:58;100887.00;;;14.90
22828;BMP180;11580;52.562;13.418;2023-10-09T05:13:42;100896.00;;;14.90
22828;BMP180;11580;52.562;13.418;2023-10-09T05:16:11;100887.00;;;14.90
22828;BMP180;11580;52.562;13.418;2023-10-09T05:18:45;100886.00;;;14.90
22828;BMP180;11580;52.562;13.418;2023-10-09T05:21:24;100890.00;;;14.90
22828;BMP180;11580;52.562;13.418;2023-10-09T05:24:04;100889.00;;;14.90
22828;BMP180;11580;52.562;13.418;2023-10-09T05:26:47;100886.00;;;15.00
22828;BMP180;11580;52.562;13.418;2023-10-09T05:29:19;100892.00;;;15.00
22828;BMP180;11580;52.562;13.418;2023-10-09T05:32:02;100898.00;;;15.00
22828;BMP180;11580;52.562;13.418;2023-10-09T05:34:32;100898.00;;;15.00
22828;BMP180;11580;52.562;13.418;2023-10-09T05:37:24;100891.00;;;15.00
22828;BMP180;11580;52.562;13.418;2023-10-09T05:39:51;100885.00;;;15.00
22828;BMP180;11580;52.562;13.418;2023-10-09T05:42:45;100884.00;;;15.00
22828;BMP180;11580;52.562;13.418;2023-10-09T05:45:23;100881.00;;;15.00
22828;BMP180;11580;52.562;13.418;2023-10-09T05:48:08;100877.00;;;15.00
22828;BMP180;11580;52.562;13.418;2023-10-09T05:51:04;100880.00;;;15.10
22828;BMP180;11580;52.562;13.418;2023-10-09T05:53:39;100890.00;;;15.10
22828;BMP180;11580;52.562;13.418;2023-10-09T05:56:37;100893.00;;;15.10
22828;BMP180;11580;52.562;13.418;2023-10-09T05:59:18;100900.00;;;15.10
22828;BMP180;11580;52.562;13.418;2023-10-09T06:02:03;100892.00;;;15.10
22828;BMP180;11580;52.562;13.418;2023-10-09T06:04:48;100892.00;;;15.10
22828;BMP180;11580;52.562;13.418;2023-10-09T06:07:20;100889.00;;;15.20
22828;BMP180;11580;52.562;13.418;2023-10-09T06:10:08;100886.00;;;15.20
22828;BMP180;11580;52.562;13.418;2023-10-09T06:12:57;100880.00;;;15.20
22828;BMP180;11580;52.562;13.418;2023-10-09T06:15:36;100892.00;;;15.30
22828;BMP180;11580;52.562;13.418;2023-10-09T06:18:27;100879.00;;;15.30
22828;BMP180;11580;52.562;13.418;2023-10-09T06:20:59;100873.00;;;15.30
22828;BMP180;11580;52.562;13.418;2023-10-09T06:23:55;100873.00;;;15.40
22828;BMP180;11580;52.562;13.418;2023-10-09T06:26:42;100874.00;;;15.40
22828;BMP180;11580;52.562;13.418;2023-10-09T06:29:40;100873.00;;;15.50
22828;BMP180;11580;52.562;13.418;2023-10-09T06:32:21;100867.00;;;15.50
22828;BMP180;11580;52.562;13.418;2023-10-09T06:35:05;100869.00;;;15.60
22828;BMP180;11580;52.562;13.418;2023-10-09T06:37:42;100868.00;;;15.70
22828;BMP180;11580;52.562;13.418;2023-10-09T06:40:24;100877.00;;;15.80
22828;BMP180;11580;52.562;13.418;2023-10-09T06:43:10;100877.00;;;15.90
22828;BMP180;11580;52.562;13.418;2023-10-09T06:45:43;100871.00;;;16.00
22828;BMP180;11580;52.562;13.418;2023-10-09T06:48:21;100873.00;;;16.10
22828;BMP180;11580;52.562;13.418;2023-10-09T06:51:08;100870.00;;;16.10
22828;BMP180;11580;52.562;13.418;2023-10-09T06:53:42;100866.00;;;16.20
22828;BMP180;11580;52.562;13.418;2023-10-09T06:56:35;100849.00;;;16.20
22828;BMP180;11580;52.562;13.418;2023-10-09T06:59:21;100854.00;;;16.30
22828;BMP180;11580;52.562;13.418;2023-10-09T07:01:51;100851.00;;;16.30
22828;BMP180;11580;52.562;13.418;2023-10-09T07:04:32;100846.00;;;16.40
22828;BMP180;11580;52.562;13.418;2023-10-09T07:07:21;100849.00;;;16.50
22828;BMP180;11580;52.562;13.418;2023-10-09T07:09:52;100853.00;;;16.60
22828;BMP180;11580;52.562;13.418;2023-10-09T07:12:37;100856.00;;;16.60
22828;BMP180;11580;52.562;13.418;2023-10-09T07:15:12;100859.00;;;16.70
22828;BMP180;11580;52.562;13.418;2023-10-09T07:18:03;100862.00;;;16.70
22828;BMP180;11580;52.562;13.418;2023-10-09T07:20:44;100855.00;;;16.70
22828;BMP180;11580;52.562;13.418;2023-10-09T07:23:26;100847.00;;;16.80
22828;BMP180;11580;52.562;13.418;2023-10-09T07:26:03;100846.00;;;16.80
22828;BMP180;11580;52.562;13.418;2023-10-09T07:28:46;100845.00;;;16.90
22828;BMP180;11580;52.562;13.418;2023-10-09T07:31:20;100860.00;;;16.90
22828;BMP180;11580;52.562;13.418;2023-10-09T07:34:05;100862.00;;;17.00
22828;BMP180;11580;52.562;13.418;2023-10-09T07:36:55;100867.00;;;17.00
22828;BMP180;11580;52.562;13.418;2023-10-09T07:39:22;100861.00;;;17.10
22828;BMP180;11580;52.562;13.418;2023-10-09T07:41:50;100860.00;;;17.10
22828;BMP180;11580;52.562;13.418;2023-10-09T07:44:27;100858.00;;;17.10
22828;BMP180;11580;52.562;13.418;2023-10-09T07:47:05;100860.00;;;17.10
22828;BMP180;11580;52.562;13.418;2023-10-09T07:49:46;100868.00;;;17.10
22828;BMP180;11580;52.562;13.418;2023-10-09T07:52:20;100880.00;;;17.10
22828;BMP180;11580;52.562;13.418;2023-10-09T07:54:49;100876.00;;;17.20
22828;BMP180;11580;52.562;13.418;2023-10-09T07:57:21;100875.00;;;17.30
22828;BMP180;11580;52.562;13.418;2023-10-09T07:59:52;100891.00;;;17.30
22828;BMP180;11580;52.562;13.418;2023-10-09T08:02:39;100898.00;;;17.30
22828;BMP180;11580;52.562;13.418;2023-10-09T08:05:08;100906.00;;;17.40
22828;BMP180;11580;52.562;13.418;2023-10-09T08:07:47;100908.00;;;17.40
22828;BMP180;11580;52.562;13.418;2023-10-09T08:10:23;100905.00;;;17.40
22828;BMP180;11580;52.562;13.418;2023-10-09T08:13:08;100922.00;;;17.40
22828;BMP180;11580;52.562;13.418;2023-10-09T08:15:56;100916.00;;;17.50
22828;BMP180;11580;52.562;13.418;2023-10-09T08:18:28;100920.00;;;17.40
22828;BMP180;11580;52.562;13.418;2023-10-09T08:20:55;100924.00;;;17.40
22828;BMP180;11580;52.562;13.418;2023-10-09T08:23:39;100925.00;;;17.40
22828;BMP180;11580;52.562;13.418;2023-10-09T08:26:17;100924.00;;;17.40
22828;BMP180;11580;52.562;13.418;2023-10-09T08:28:56;100920.00;;;17.40
22828;BMP180;11580;52.562;13.418;2023-10-09T08:31:40;100914.00;;;17.40
22828;BMP180;11580;52.562;13.418;2023-10-09T08:34:14;100906.00;;;17.40
22828;BMP180;11580;52.562;13.418;2023-10-09T08:36:50;100915.00;;;17.40
22828;BMP180;11580;52.562;13.418;2023-10-09T08:39:20;100911.00;;;17.40
22828;BMP180;11580;52.562;13.418;2023-10-09T08:41:54;100908.00;;;17.40
22828;BMP180;11580;52.562;13.418;2023-10-09T08:44:25;100914.00;;;17.40
22828;BMP180;11580;52.562;13.418;2023-10-09T08:46:55;100892.00;;;17.40
22828;BMP180;11580;52.562;13.418;2023-10-09T08:49:26;100916.00;;;17.50
22828;BMP180;11580;52.562;13.418;2023-10-09T08:51:54;100906.00;;;17.50
22828;BMP180;11580;52.562;13.418;2023-10-09T08:54:22;100904.00;;;17.60
22828;BMP180;11580;52.562;13.418;2023-10-09T08:56:49;100906.00;;;17.60
22828;BMP180;11580;52.562;13.418;2023-10-09T08:59:18;100899.00;;;17.70
22828;BMP180;11580;52.562;13.418;2023-10-09T09:01:46;100898.00;;;17.80
22828;BMP180;11580;52.562;13.418;2023-10-09T09:04:36;100895.00;;;17.80
22828;BMP180;11580;52.562;13.418;2023-10-09T09:07:04;100893.00;;;17.90
22828;BMP180;11580;52.562;13.418;2023-10-09T09:09:32;100884.00;;;17.90
22828;BMP180;11580;52.562;13.418;2023-10-09T09:12:00;100892.00;;;18.00
22828;BMP180;11580;52.562;13.418;2023-10-09T09:14:38;100897.00;;;18.10
22828;BMP180;11580;52.562;13.418;2023-10-09T09:17:06;100887.00;;;18.00
22828;BMP180;11580;52.562;13.418;2023-10-09T09:19:38;100888.00;;;18.30
22828;BMP180;11580;52.562;13.418;2023-10-09T09:22:05;100881.00;;;18.40
22828;BMP180;11580;52.562;13.418;2023-10-09T09:24:41;100884.00;;;18.60
22828;BMP180;11580;52.562;13.418;2023-10-09T09:27:44;100893.00;;;18.70
22828;BMP180;11580;52.562;13.418;2023-10-09T09:30:26;100888.00;;;18.80
22828;BMP180;11580;52.562;13.418;2023-10-09T09:33:19;100885.00;;;18.80
22828;BMP180;11580;52.562;13.418;2023-10-09T09:36:01;100887.00;;;18.80
22828;BMP180;11580;52.562;13.418;2023-10-09T09:38:30;100878.00;;;18.90
22828;BMP180;11580;52.562;13.418;2023-10-09T09:41:09;100896.00;;;18.90
22828;BMP180;11580;52.562;13.418;2023-10-09T09:43:37;100901.00;;;19.00
22828;BMP180;11580;52.562;13.418;2023-10-09T09:46:07;100881.00;;;19.00
22828;BMP180;11580;52.562;13.418;2023-10-09T09:48:40;100908.00;;;19.00
22828;BMP180;11580;52.562;13.418;2023-10-09T09:51:13;100912.00;;;19.00
22828;BMP180;11580;52.562;13.418;2023-10-09T09:53:43;100908.00;;;19.00
22828;BMP180;11580;52.562;13.418;2023-10-09T09:56:15;100911.00;;;19.00
22828;BMP180;11580;52.562;13.418;2023-10-09T09:58:50;100900.00;;;19.00
22828;BMP180;11580;52.562;13.418;2023-10-09T10:01:23;100901.00;;;19.00
22828;BMP180;11580;52.562;13.418;2023-10-09T10:03:59;100898.00;;;19.00
22828;BMP180;11580;52.562;13.418;2023-10-09T10:06:30;100905.00;;;19.00
22828;BMP180;11580;52.562;13.418;2023-10-09T10:08:58;100874.00;;;19.00
22828;BMP180;11580;52.562;13.418;2023-10-09T10:11:45;100897.00;;;18.90
22828;BMP180;11580;52.562;13.418;2023-10-09T10:14:18;100901.00;;;18.90
22828;BMP180;11580;52.562;13.418;2023-10-09T10:17:02;100899.00;;;18.90
22828;BMP180;11580;52.562;13.418;2023-10-09T10:19:59;100898.00;;;18.90
22828;BMP180;11580;52.562;13.418;2023-10-09T10:22:29;100903.00;;;18.80
22828;BMP180;11580;52.562;13.418;2023-10-09T10:24:57;100891.00;;;18.90
22828;BMP180;11580;52.562;13.418;2023-10-09T10:27:29;100900.00;;;18.90
22828;BMP180;11580;52.562;13.418;2023-10-09T10:30:28;100900.00;;;18.90
22828;BMP180;11580;52.562;13.418;2023-10-09T10:33:03;100896.00;;;18.90
22828;BMP180;11580;52.562;13.418;2023-10-09T10:35:40;100884.00;;;18.90
22828;BMP180;11580;52.562;13.418;2023-10-09T10:38:30;100886.00;;;19.00
22828;BMP180;11580;52.562;13.418;2023-10-09T10:41:10;100882.00;;;19.10
22828;BMP180;11580;52.562;13.418;2023-10-09T10:43:40;100882.00;;;19.10
22828;BMP180;11580;52.562;13.418;2023-10-09T10:46:46;100883.00;;;19.20
22828;BMP180;11580;52.562;13.418;2023-10-09T10:49:19;100886.00;;;19.40
22828;BMP180;11580;52.562;13.418;2023-10-09T10:51:52;100887.00;;;19.50
22828;BMP180;11580;52.562;13.418;2023-10-09T10:54:28;100886.00;;;19.60
22828;BMP180;11580;52.562;13.418;2023-10-09T10:57:17;100885.00;;;19.70
22828;BMP180;11580;52.562;13.418;2023-10-09T10:59:56;100890.00;;;19.80
22828;BMP180;11580;52.562;13.418;2023-10-09T11:02:43;100888.00;;;19.80
22828;BMP180;11580;52.562;13.418;2023-10-09T11:05:10;100883.00;;;19.80
22828;BMP180;11580;52.562;13.418;2023-10-09T11:07:52;100890.00;;;19.90
22828;BMP180;11580;52.562;13.418;2023-10-09T11:10:25;100885.00;;;19.90
22828;BMP180;11580;52.562;13.418;2023-10-09T11:12:57;100883.00;;;20.00
22828;BMP180;11580;52.562;13.418;2023-10-09T11:15:42;100885.00;;;20.00
22828;BMP180;11580;52.562;13.418;2023-10-09T11:18:15;100877.00;;;20.10
22828;BMP180;11580;52.562;13.418;2023-10-09T11:20:50;100849.00;;;20.20
22828;BMP180;11580;52.562;13.418;2023-10-09T11:23:44;100870.00;;;20.20
22828;BMP180;11580;52.562;13.418;2023-10-09T11:26:26;100862.00;;;20.20
22828;BMP180;11580;52.562;13.418;2023-10-09T11:29:08;100869.00;;;20.20
22828;BMP180;11580;52.562;13.418;2023-10-09T11:31:57;100851.00;;;20.20
22828;BMP180;11580;52.562;13.418;2023-10-09T11:34:23;100834.00;;;20.20
22828;BMP180;11580;52.562;13.418;2023-10-09T11:37:02;100853.00;;;20.20
22828;BMP180;11580;52.562;13.418;2023-10-09T11:39:32;100858.00;;;20.20
22828;BMP180;11580;52.562;13.418;2023-10-09T11:42:14;100866.00;;;20.30
22828;BMP180;11580;52.562;13.418;2023-10-09T11:44:56;100859.00;;;20.40
22828;BMP180;11580;52.562;13.418;2023-10-09T11:47:22;100855.00;;;20.50
22828;BMP180;11580;52.562;13.418;2023-10-09T11:49:59;100847.00;;;20.60
22828;BMP180;11580;52.562;13.418;2023-10-09T11:52:55;100839.00;;;20.70
22828;BMP180;11580;52.562;13.418;2023-10-09T11:55:46;100839.00;;;20.80
22828;BMP180;11580;52.562;13.418;2023-10-09T11:58:16;100837.00;;;20.90
22828;BMP180;11580;52.562;13.418;2023-10-09T12:00:50;100828.00;;;20.90
22828;BMP180;11580;52.562;13.418;2023-10-09T12:03:24;100831.00;;;21.00
22828;BMP180;11580;52.562;13.418;2023-10-09T12:05:59;100829.00;;;21.00
22828;BMP180;11580;52.562;13.418;2023-10-09T12:08:30;100829.00;;;21.00
22828;BMP180;11580;52.562;13.418;2023-10-09T12:10:58;100831.00;;;21.10
22828;BMP180;11580;52.562;13.418;2023-10-09T12:13:30;100837.00;;;21.10
22828;BMP180;11580;52.562;13.418;2023-10-09T12:15:57;100839.00;;;21.20
22828;BMP180;11580;52.562;13.418;2023-10-09T12:18:24;100838.00;;;21.20
22828;BMP180;11580;52.562;13.418;2023-10-09T12:20:52;100844.00;;;21.30
22828;BMP180;11580;52.562;13.418;2023-10-09T12:23:28;100829.00;;;21.30
22828;BMP180;11580;52.562;13.418;2023-10-09T12:25:55;100849.00;;;21.30
22828;BMP180;11580;52.562;13.418;2023-10-09T12:28:22;100839.00;;;21.30
22828;BMP180;11580;52.562;13.418;2023-10-09T12:30:51;100843.00;;;21.20
22828;BMP180;11580;52.562;13.418;2023-10-09T12:33:20;100838.00;;;21.20
22828;BMP180;11580;52.562;13.418;2023-10-09T12:35:54;100852.00;;;21.20
22828;BMP180;11580;52.562;13.418;2023-10-09T12:38:26;100847.00;;;21.10
22828;BMP180;11580;52.562;13.418;2023-10-09T12:41:07;100835.00;;;21.10
22828;BMP180;11580;52.562;13.418;2023-10-09T12:43:42;100843.00;;;21.10
22828;BMP180;11580;52.562;13.418;2023-10-09T12:46:11;100839.00;;;21.10
22828;BMP180;11580;52.562;13.418;2023-10-09T12:48:42;100834.00;;;21.00
22828;BMP180;11580;52.562;13.418;2023-10-09T12:51:12;100832.00;;;21.00
22828;BMP180;11580;52.562;13.418;2023-10-09T12:53:42;100838.00;;;21.00
22828;BMP180;11580;52.562;13.418;2023-10-09T12:56:09;100833.00;;;21.00
22828;BMP180;11580;52.562;13.418;2023-10-09T12:58:38;100843.00;;;20.90
22828;BMP180;11580;52.562;13.418;2023-10-09T13:01:06;100834.00;;;20.90
22828;BMP180;11580;52.562;13.418;2023-10-09T13:03:38;100843.00;;;20.80
22828;BMP180;11580;52.562;13.418;2023-10-09T13:06:05;100835.00;;;20.80
22828;BMP180;11580;52.562;13.418;2023-10-09T13:08:37;100830.00;;;20.70
22828;BMP180;11580;52.562;13.418;2023-10-09T13:11:08;100802.00;;;20.60
22828;BMP180;11580;52.562;13.418;2023-10-09T13:13:38;100812.00;;;20.50
22828;BMP180;11580;52.562;13.418;2023-10-09T13:16:10;100819.00;;;20.40
22828;BMP180;11580;52.562;13.418;2023-10-09T13:18:50;100823.00;;;20.30
22828;BMP180;11580;52.562;13.418;2023-10-09T13:21:19;100825.00;;;20.20
22828;BMP180;11580;52.562;13.418;2023-10-09T13:23:47;100823.00;;;20.20
22828;BMP180;11580;52.562;13.418;2023-10-09T13:26:16;100837.00;;;20.10
22828;BMP180;11580;52.562;13.418;2023-10-09T13:28:52;100838.00;;;20.00
22828;BMP180;11580;52.562;13.418;2023-10-09T13:31:21;100838.00;;;19.90
22828;BMP180;11580;52.562;13.418;2023-10-09T13:33:54;100838.00;;;19.90
22828;BMP180;11580;52.562;13.418;2023-10-09T13:36:22;100831.00;;;19.90
22828;BMP180;11580;52.562;13.418;2023-10-09T13:38:58;100838.00;;;19.80
22828;BMP180;11580;52.562;13.418;2023-10-09T13:41:45;100830.00;;;19.70
22828;BMP180;11580;52.562;13.418;2023-10-09T13:44:12;100831.00;;;19.70
22828;BMP180;11580;52.562;13.418;2023-10-09T13:46:39;100845.00;;;19.70
22828;BMP180;11580;52.562;13.418;2023-10-09T13:49:10;100845.00;;;19.70
22828;BMP180;11580;52.562;13.418;2023-10-09T13:51:39;100845.00;;;19.70
22828;BMP180;11580;52.562;13.418;2023-10-09T13:54:10;100844.00;;;19.70
22828;BMP180;11580;52.562;13.418;2023-10-09T13:56:44;100834.00;;;19.70
22828;BMP180;11580;52.562;13.418;2023-10-09T13:59:11;100826.00;;;19.60
22828;BMP180;11580;52.562;13.418;2023-10-09T14:01:38;100827.00;;;19.60
22828;BMP180;11580;52.562;13.418;2023-10-09T14:04:06;100830.00;;;19.60
22828;BMP180;11580;52.562;13.418;2023-10-09T14:06:34;100827.00;;;19.60
22828;BMP180;11580;52.562;13.418;2023-10-09T14:09:04;100823.00;;;19.60
22828;BMP180;11580;52.562;13.418;2023-10-09T14:11:35;100822.00;;;19.50
22828;BMP180;11580;52.562;13.418;2023-10-09T14:14:04;100827.00;;;19.50
22828;BMP180;11580;52.562;13.418;2023-10-09T14:16:35;100826.00;;;19.50
22828;BMP180;11580;52.562;13.418;2023-10-09T14:19:03;100815.00;;;19.50
22828;BMP180;11580;52.562;13.418;2023-10-09T14:21:34;100815.00;;;19.50
22828;BMP180;11580;52.562;13.418;2023-10-09T14:24:04;100818.00;;;19.50
22828;BMP180;11580;52.562;13.418;2023-10-09T14:26:41;100815.00;;;19.40
22828;BMP180;11580;52.562;13.418;2023-10-09T14:29:12;100825.00;;;19.40
22828;BMP180;11580;52.562;13.418;2023-10-09T14:31:42;100827.00;;;19.40